Latest Weather Observations for Truscott

IDW60801

Issued at 10:04 pm WST Wednesday 18 January 2017 (issued every 30 minutes, with the page automatically refreshed every 10 minutes)

About weather observations | Map of weather stations | Latest weather observations for WA | Other Formats
Station Details ID: 001020 Name: TRUSCOTT Lat: -14.09 Lon: 126.39 Height: 51.0 m
Data from the previous 72 hours. | See also: Recent months at Truscott
Date/Time
WST
Temp
°C
App
Temp
°C
Dew
Point
°C
Rel
Hum
%
Delta-T
°C
Wind Press
QNH
hPa
Press
MSL
hPa
Rain since
9am
mm
Dir  Spd
km/h
Gust
km/h
Spd
kts
Gust
kts
18/10:00pm 27.0 32.3 25.0 89 1.4 WNW 6 6 3 3 1009.0 - 14.0
18/09:30pm 26.9 31.9 24.5 87 1.7 WNW 6 9 3 5 1009.7 1009.3 14.0
18/09:00pm 27.0 32.0 24.5 86 1.7 WNW 6 7 3 4 1009.7 1009.3 14.0
18/08:30pm 27.0 31.8 24.5 86 1.7 WNW 7 11 4 6 1009.5 1009.1 14.0
18/08:00pm 27.1 31.9 24.4 85 1.9 W 7 - 4 - 1009.0 1008.9 14.0
18/07:30pm 27.1 31.9 24.4 85 1.9 W 7 11 4 6 1009.0 1008.6 14.0
18/07:00pm 27.1 31.6 24.0 83 2.1 WSW 7 - 4 - 1008.0 1008.3 14.0
18/06:30pm 27.0 31.7 25.0 89 1.4 W 9 - 5 - 1008.0 - 14.0
18/06:00pm 26.5 31.9 25.5 94 0.7 W 7 - 4 - 1008.0 1007.9 14.0
18/05:30pm 26.0 29.2 25.0 94 0.7 W 17 - 9 - 1007.0 - 14.0
18/05:00pm 26.3 28.4 23.8 86 1.7 SW 19 - 10 - 1007.0 1006.8 13.8
18/04:30pm 28.0 30.6 24.0 79 2.8 W 17 - 9 - 1006.0 - 13.6
18/04:00pm 28.0 30.1 23.8 78 2.9 W 19 - 10 - 1007.0 1006.6 13.6
18/03:30pm 27.0 31.7 25.0 89 1.4 W 9 - 5 - 1006.0 - 13.6
18/03:00pm 26.0 29.6 24.4 91 1.1 SW 13 - 7 - 1006.0 1006.4 13.6
18/02:39pm 26.0 30.6 26.0 100 0.0 SW 13 - 7 - 1007.0 - 13.6
18/02:30pm 26.0 31.0 26.0 100 0.0 SSW 11 - 6 - 1007.0 - 13.6
18/02:14pm 26.0 29.3 26.0 100 0.0 SW 20 - 11 - 1007.0 - 11.8
18/02:04pm 26.0 30.2 26.0 100 0.0 WNW 15 - 8 - 1007.0 - 10.2
18/02:00pm 26.0 29.8 25.3 96 0.5 NW 15 - 8 - 1007.0 1007.0 10.2
18/01:43pm 26.0 26.4 25.0 94 0.7 NW 32 - 17 - 1007.0 - 6.6
18/01:30pm 28.0 32.6 26.0 89 1.4 W 13 - 7 - 1007.0 - 3.4
18/01:01pm 29.0 31.7 25.0 79 2.8 W 20 - 11 - 1007.0 - 2.6
18/01:00pm 29.0 31.8 25.2 80 2.7 W 20 - 11 - 1007.0 1007.1 2.6
18/12:44pm 26.0 28.0 23.0 83 2.0 NW 17 - 9 - 1007.0 - 2.4
18/12:30pm 30.0 32.6 24.0 70 4.2 W 17 - 9 - 1007.0 - 0.0
18/12:00pm 30.5 32.9 24.2 69 4.4 W 19 - 10 - 1008.0 1007.8 0.0
18/11:30am 29.6 31.7 23.8 71 4.0 WNW 19 28 10 15 1008.4 1008.0 0.0
18/11:00am 29.8 31.7 23.5 69 4.4 W 19 - 10 - 1008.0 1008.3 0.0
18/10:30am 29.3 31.7 23.7 72 3.9 WNW 17 28 9 15 1009.2 1008.8 0.0
18/10:00am 29.3 31.2 23.5 71 4.0 W 19 30 10 16 1009.7 1009.3 0.0
18/09:30am 28.6 30.9 23.5 74 3.5 WNW 17 24 9 13 1009.7 1009.3 0.0
18/09:00am 28.5 30.4 23.4 74 3.5 W 19 - 10 - 1009.0 1009.3 -
18/08:56am 28.0 30.2 24.0 79 2.8 W 19 - 10 - 1009.0 - -
18/08:41am 28.0 31.2 25.0 84 2.1 WNW 17 - 9 - 1009.0 - -
18/08:30am 28.0 31.2 25.0 84 2.1 WNW 17 - 9 - 1009.0 - -
18/08:00am 28.1 30.6 24.5 81 2.5 W 19 - 10 - 1009.0 1009.1 -
18/07:30am 27.6 30.5 24.4 83 2.2 W 17 26 9 14 1009.4 1009.0 -
18/07:00am 26.8 29.7 23.9 84 2.0 W 15 22 8 12 1009.4 1009.0 28.6
18/06:30am 26.2 30.6 24.4 90 1.2 W 9 15 5 8 1009.1 - 28.6
18/06:00am 25.7 29.8 24.5 93 0.8 WSW 11 - 6 - 1008.0 1008.3 28.6
18/05:56am 26.0 30.7 25.0 94 0.7 WSW 9 - 5 - 1008.0 - 28.6
18/05:30am 26.0 30.4 25.0 94 0.7 W 11 - 6 - 1008.0 - 28.6
18/05:00am 25.4 28.7 24.5 95 0.6 W 15 - 8 - 1008.0 1007.8 28.6
18/04:46am 25.0 28.6 25.0 100 0.0 W 15 - 8 - 1008.0 - 28.6
18/04:30am 25.1 29.3 24.1 94 0.7 WNW 9 17 5 9 1008.1 1007.7 28.6
18/04:00am 24.7 29.1 24.4 98 0.2 WNW 9 - 5 - 1007.0 1007.3 28.6
18/03:30am 25.0 28.0 24.0 94 0.7 WNW 15 - 8 - 1007.0 - 28.4
18/03:00am 25.0 28.4 24.7 98 0.2 W 15 - 8 - 1007.0 1007.5 27.4
18/02:30am 25.0 27.6 24.0 94 0.7 WNW 17 - 9 - 1008.0 - 26.2
18/02:00am 25.1 28.6 24.8 98 0.2 WNW 15 - 8 - 1008.0 1007.9 24.4
18/01:30am 25.0 29.0 25.0 100 0.0 W 13 - 7 - 1008.0 - 23.2
18/01:00am 25.4 30.4 25.4 100 0.0 WNW 9 - 5 - 1008.0 1007.7 22.0
18/12:30am 24.7 29.6 24.7 100 0.0 WNW 7 9 4 5 1008.4 1008.0 21.0
18/12:00am 24.6 29.5 24.6 100 0.0 NW 7 - 4 - 1008.0 1008.3 19.6
 
Date/Time
WST
Temp
°C
App
Temp
°C
Dew
Point
°C
Rel
Hum
%
Delta-T
°C
Wind Press
QNH
hPa
Press
MSL
hPa
Rain since
9am
mm
Dir  Spd
km/h
Gust
km/h
Spd
kts
Gust
kts
17/11:32pm 24.0 28.5 24.0 100 0.0 NW 7 - 4 - 1009.0 - 18.4
17/11:30pm 24.0 28.5 24.0 100 0.0 NW 7 - 4 - 1009.0 - 18.0
17/11:00pm 25.0 28.4 24.7 98 0.2 WNW 15 - 8 - 1009.0 1009.2 11.8
17/10:52pm 25.0 29.7 25.0 100 0.0 WNW 9 - 5 - 1009.0 - 10.8
17/10:30pm 25.0 29.7 24.0 94 0.7 SW 6 - 3 - 1009.0 - 10.6
17/10:12pm 26.0 31.3 25.0 94 0.7 SSW 6 - 3 - 1009.0 - 10.6
17/10:02pm 26.0 31.1 25.0 94 0.7 SW 7 - 4 - 1009.0 - 10.6
17/10:00pm 25.6 30.3 24.9 96 0.5 SSW 9 - 5 - 1009.0 1009.1 10.6
17/09:54pm 26.0 31.1 25.0 94 0.7 SW 7 - 4 - 1009.0 - 10.2
17/09:43pm 26.0 31.7 25.0 94 0.7 W 4 - 2 - 1009.0 - 10.0
17/09:30pm 26.0 32.5 25.0 94 0.7 CALM 0 - 0 - 1009.0 - 9.2
17/09:00pm 26.4 31.1 25.0 92 1.0 WSW 9 - 5 - 1009.0 1009.2 9.0
17/08:30pm 27.7 34.3 25.3 87 1.7 CALM 0 0 0 0 1009.0 1008.6 8.8
17/08:00pm 27.8 32.7 24.6 83 2.2 NW 7 - 4 - 1008.0 1007.9 8.8
17/07:30pm 28.0 32.7 25.0 84 2.1 WNW 9 - 5 - 1008.0 - 8.8
17/07:00pm 28.0 34.0 26.0 89 1.4 WNW 6 - 3 - 1008.0 1007.6 8.8
17/06:30pm 28.0 34.3 26.0 89 1.4 W 4 - 2 - 1007.0 - 8.8
17/06:00pm 28.1 33.0 25.3 85 2.0 WSW 9 - 5 - 1006.0 1006.4 8.8
17/05:30pm 28.0 33.8 26.0 89 1.4 NW 7 - 4 - 1006.0 - 8.8
17/05:14pm 27.0 32.1 25.0 89 1.4 NW 7 - 4 - 1006.0 - 8.8
17/05:00pm 26.2 29.0 23.7 86 1.7 NW 15 - 8 - 1006.0 1005.8 8.8
17/04:59pm 26.0 29.0 24.0 89 1.4 NW 15 - 8 - 1006.0 - 8.6
17/04:54pm 27.0 30.4 24.0 83 2.1 NW 13 - 7 - 1006.0 - 7.2
17/04:30pm 27.0 31.0 25.0 89 1.4 W 13 - 7 - 1005.0 - 4.0
17/04:25pm 28.0 33.0 26.0 89 1.4 W 11 - 6 - 1005.0 - 3.4
17/04:00pm 28.4 33.3 25.8 86 1.8 NW 11 - 6 - 1005.0 1004.9 1.8
17/03:30pm 29.2 33.2 25.0 78 3.0 NW 13 22 7 12 1005.4 1005.0 1.6
17/03:00pm 30.4 33.1 24.8 72 3.9 NW 19 - 10 - 1005.0 1005.1 1.6
17/02:30pm 30.0 33.0 24.0 70 4.2 WNW 15 - 8 - 1005.0 - 1.6
17/02:00pm 29.8 33.0 24.4 73 3.8 WNW 15 - 8 - 1005.0 1005.4 1.6
17/01:30pm 29.1 33.1 25.1 79 2.8 WNW 13 19 7 10 1006.4 1006.0 1.4
17/01:00pm 28.6 32.3 24.6 79 2.8 W 13 17 7 9 1006.9 1006.5 1.4
17/12:30pm 28.7 32.9 24.7 79 2.8 WNW 11 15 6 8 1007.4 1007.0 1.4
17/12:00pm 27.9 32.6 24.9 84 2.1 WNW 9 - 5 - 1007.0 1007.0 1.4
17/11:30am 27.0 31.7 25.0 89 1.4 NW 9 - 5 - 1007.0 - 1.4
17/11:00am 26.7 29.2 24.4 87 1.6 W 19 - 10 - 1008.0 1007.6 1.4
17/10:39am 27.0 31.4 25.0 89 1.4 WNW 11 - 6 - 1008.0 - 1.4
17/10:30am 26.0 30.1 24.0 89 1.4 W 9 - 5 - 1008.0 - 1.4
17/10:24am 26.0 28.6 22.0 78 2.7 WSW 11 - 6 - 1008.0 - 1.2
17/10:00am 28.3 29.9 23.2 74 3.5 WNW 20 - 11 - 1008.0 1007.6 0.0
17/09:30am 30.0 34.1 24.0 70 4.2 WNW 9 - 5 - 1008.0 - 0.0
17/09:00am 29.7 33.9 24.1 72 3.9 W 9 - 5 - 1008.0 1007.8 0.0
17/08:30am 29.0 33.1 24.0 74 3.5 W 9 - 5 - 1008.0 - 0.0
17/08:00am 29.0 33.6 24.1 75 3.4 SSW 7 - 4 - 1008.0 1007.7 0.0
17/07:30am 28.6 33.9 25.0 81 2.5 SSW 6 9 3 5 1008.0 1007.6 0.0
17/07:00am 28.1 32.7 24.7 82 2.4 SW 9 - 5 - 1007.0 1007.5 0.0
17/06:30am 28.0 33.1 25.0 84 2.1 S 7 - 4 - 1007.0 - 0.0
17/06:00am 27.7 33.2 25.3 87 1.7 WNW 6 7 3 4 1007.8 1007.4 0.0
17/05:30am 27.6 33.2 25.4 88 1.5 W 6 7 3 4 1007.5 1007.1 0.0
17/05:00am 27.4 33.7 25.4 89 1.4 WSW 2 - 1 - 1007.0 1006.6 0.0
17/04:30am 27.2 33.8 25.2 89 1.4 CALM 0 0 0 0 1006.9 1006.5 0.0
17/04:00am 27.5 34.1 25.3 88 1.5 CALM 0 0 0 0 1006.6 1006.2 0.0
17/03:30am 27.8 33.6 25.2 86 1.8 WNW 4 9 2 5 1006.5 1006.1 0.0
17/03:00am 27.7 33.0 24.9 85 2.0 WNW 6 7 3 4 1006.2 1005.8 0.0
17/02:30am 27.7 32.8 24.9 85 2.0 WNW 7 9 4 5 1006.1 1005.7 0.0
17/02:00am 27.7 33.1 25.1 86 1.8 NW 6 7 3 4 1006.3 1005.9 0.0
17/01:30am 27.8 33.2 25.2 86 1.8 WNW 6 9 3 5 1006.4 1006.0 0.0
17/01:00am 28.0 33.4 25.2 85 2.0 W 6 - 3 - 1006.0 1006.0 0.0
17/12:30am 28.0 33.2 24.8 83 2.2 W 6 9 3 5 1006.5 1006.1 0.0
17/12:00am 28.2 33.3 25.0 83 2.2 SSW 7 9 4 5 1006.7 1006.3 0.0
 
Date/Time
WST
Temp
°C
App
Temp
°C
Dew
Point
°C
Rel
Hum
%
Delta-T
°C
Wind Press
QNH
hPa
Press
MSL
hPa
Rain since
9am
mm
Dir  Spd
km/h
Gust
km/h
Spd
kts
Gust
kts
16/11:30pm 28.4 33.1 25.0 82 2.4 W 9 15 5 8 1007.0 1006.6 0.0
16/11:00pm 28.4 32.6 24.8 81 2.5 W 11 15 6 8 1007.4 1007.0 0.0
16/10:30pm 28.5 32.8 24.9 81 2.5 WNW 11 19 6 10 1007.7 1007.3 0.0
16/10:00pm 28.3 32.7 24.5 80 2.7 NW 9 13 5 7 1007.7 1007.3 0.0
16/09:30pm 28.4 32.3 24.2 78 2.9 NW 11 20 6 11 1007.6 1007.2 0.0
16/09:00pm 28.5 32.3 24.1 77 3.1 NW 11 17 6 9 1007.8 1007.4 0.0
16/08:30pm 28.4 32.5 24.0 77 3.0 NW 9 15 5 8 1008.0 1007.6 0.0
16/08:00pm 28.6 31.6 23.3 73 3.6 NW 13 19 7 10 1007.7 1007.3 0.0
16/07:30pm 28.5 31.8 23.2 73 3.6 NW 11 17 6 9 1007.4 1007.0 0.0
16/07:00pm 28.6 31.8 23.1 72 3.8 NW 11 17 6 9 1006.9 1006.5 0.0
16/06:30pm 28.7 32.1 23.4 73 3.6 NW 11 17 6 9 1006.6 1006.2 0.0
16/06:00pm 28.8 32.0 23.7 74 3.5 NW 13 19 7 10 1006.4 1006.0 0.0
16/05:30pm 29.1 32.1 24.0 74 3.5 NW 15 20 8 11 1006.0 1005.6 0.0
16/05:00pm 29.4 31.9 23.8 72 3.9 NW 17 24 9 13 1005.8 1005.4 0.0
16/04:30pm 29.9 32.1 23.3 67 4.5 NW 17 24 9 13 1005.9 1005.5 0.0
16/04:00pm 30.2 32.9 24.1 70 4.3 NW 17 - 9 - 1005.0 1005.2 0.0
16/03:30pm 30.1 33.6 24.9 73 3.7 NW 15 22 8 12 1005.4 1005.0 0.0
16/03:00pm 30.5 34.2 24.6 70 4.1 WNW 13 - 7 - 1005.0 1005.1 0.0
16/02:30pm 30.5 33.8 23.9 68 4.6 NNW 13 19 7 10 1005.6 1005.2 0.0
16/02:00pm 31.2 34.5 23.8 64 5.2 W 13 20 7 11 1005.9 1005.5 0.0
16/01:30pm 32.0 34.8 23.0 59 6.2 WNW 13 - 7 - 1006.0 - 0.0
16/01:00pm 31.6 33.4 22.6 59 6.2 WNW 17 22 9 12 1006.6 1006.2 0.0
16/12:30pm 32.0 33.9 22.0 55 6.8 WNW 15 - 8 - 1007.0 - 0.0
16/12:00pm 31.3 33.7 22.9 61 5.8 WNW 15 20 8 11 1007.2 1006.8 0.0
16/11:30am 31.3 33.3 22.3 58 6.1 WNW 15 20 8 11 1007.3 1006.9 0.0
16/11:00am 31.0 33.5 23.1 63 5.4 WNW 15 20 8 11 1007.6 1007.2 0.0
16/10:30am 30.3 33.0 23.5 67 4.7 WNW 15 20 8 11 1008.0 1007.6 0.0
16/10:00am 30.2 32.1 23.4 67 4.7 W 19 - 10 - 1008.0 1008.1 0.0
16/09:30am 30.1 32.4 22.8 65 5.0 WNW 15 22 8 12 1008.8 1008.4 0.0
16/09:00am 29.9 33.2 23.8 70 4.2 W 13 20 7 11 1009.0 1008.6 0.0
16/08:30am 31.0 34.4 24.0 66 4.9 WSW 13 - 7 - 1009.0 - 0.0
16/08:00am 30.1 33.7 23.8 69 4.4 SW 11 - 6 - 1009.0 1008.7 0.0
16/07:30am 29.4 32.8 24.0 72 3.7 SW 13 20 7 11 1009.0 1008.6 0.0
16/07:00am 29.1 32.4 23.8 73 3.7 SW 13 17 7 9 1008.8 1008.4 0.0
16/06:30am 28.4 32.7 24.2 78 2.9 SW 9 13 5 7 1008.6 1008.2 0.0
16/06:00am 27.5 32.1 24.1 82 2.4 SW 7 9 4 5 1008.4 1008.0 0.0
16/05:30am 27.2 32.1 24.3 84 2.0 W 6 9 3 5 1007.9 1007.5 0.0
16/05:00am 27.5 31.7 24.1 82 2.4 W 9 15 5 8 1007.7 1007.3 0.0
16/04:30am 27.5 31.7 24.1 82 2.4 W 9 11 5 6 1007.4 1007.0 0.0
16/04:00am 27.5 31.6 23.9 81 2.5 W 9 13 5 7 1007.0 1006.6 0.0
16/03:30am 27.5 31.7 24.1 82 2.4 W 9 13 5 7 1006.7 1006.3 0.0
16/03:00am 27.5 31.9 24.4 83 2.2 W 9 13 5 7 1006.6 1006.2 0.0
16/02:30am 27.5 32.4 24.6 84 2.0 W 7 9 4 5 1006.8 1006.4 0.0
16/02:00am 27.8 32.2 24.4 82 2.4 W 9 13 5 7 1007.0 1006.6 0.0
16/01:30am 27.8 32.1 24.2 81 2.5 W 9 13 5 7 1007.0 1006.6 0.0
16/01:00am 27.9 32.2 24.3 81 2.5 W 9 15 5 8 1007.4 1007.0 0.0
16/12:30am 27.9 31.8 24.3 81 2.5 WNW 11 15 6 8 1007.6 1007.2 0.0
16/12:00am 27.9 32.3 24.5 82 2.4 W 9 13 5 7 1008.0 1007.6 0.0
 
Date/Time
WST
Temp
°C
App
Temp
°C
Dew
Point
°C
Rel
Hum
%
Delta-T
°C
Wind Press
QNH
hPa
Press
MSL
hPa
Rain since
9am
mm
Dir  Spd
km/h
Gust
km/h
Spd
kts
Gust
kts
15/11:30pm 28.0 32.7 25.0 84 2.1 W 9 - 5 - 1008.0 - 0.0
15/11:00pm 28.2 31.8 24.4 80 2.6 W 13 17 7 9 1008.1 1007.7 0.0
15/10:30pm 28.4 32.9 24.6 80 2.7 W 9 15 5 8 1008.5 1008.1 0.0

Other Formats:

Comma delimited format used in spreadsheet applications
http://www.bom.gov.au/fwo/IDW60801/IDW60801.95101.axf

JavaScript Object Notation format (JSON) in row-major order
http://www.bom.gov.au/fwo/IDW60801/IDW60801.95101.json